Time;durP1;ratioP1;P1;durP2;ratioP2;P2;SDS_P1;SDS_P2;PMS_P1;PMS_P2;Temp;Humidity;BMP_temperature;BMP_pressure;BME280_temperature;BME280_humidity;BME280_pressure;Samples;Min_cycle;Max_cycle;Signal;HPM_P1;HPM_P2
2023/05/25 00:00:50;;;;;;;38.17;17.13;;;;;;;;;;5046830;28;20471;-74
2023/05/25 00:03:15;;;;;;;38.77;17.20;;;;;;;;;;5046851;28;20360;-73
2023/05/25 00:05:41;;;;;;;39.23;16.73;;;;;;;;;;5037930;28;20032;-74
2023/05/25 00:08:06;;;;;;;35.53;16.00;;;;;;;;;;5045987;28;20495;-73
2023/05/25 00:10:32;;;;;;;39.13;16.30;;;;;;;;;;5041222;28;20017;-73
2023/05/25 00:12:57;;;;;;;36.80;15.23;;;;;;;;;;5033334;28;20479;-73
2023/05/25 00:15:24;;;;;;;31.37;15.00;;;;;;;;;;5033771;28;20029;-74
2023/05/25 00:17:53;;;;;;;38.13;14.60;;;;;;;;;;5040547;28;20025;-74
2023/05/25 00:20:18;;;;;;;34.23;14.30;;;;;;;;;;5037765;28;20017;-74
2023/05/25 00:22:44;;;;;;;32.80;13.77;;;;;;;;;;5042823;28;20041;-73
2023/05/25 00:25:10;;;;;;;29.53;13.13;;;;;;;;;;5040789;28;20059;-73
2023/05/25 00:27:35;;;;;;;28.93;12.50;;;;;;;;;;5043203;28;20059;-73
2023/05/25 00:30:01;;;;;;;26.40;12.23;;;;;;;;;;5040703;28;20032;-73
2023/05/25 00:32:26;;;;;;;25.93;11.93;;;;;;;;;;5036042;28;20025;-73
2023/05/25 00:34:52;;;;;;;27.03;12.03;;;;;;;;;;5038898;28;20024;-73
2023/05/25 00:37:18;;;;;;;26.00;11.90;;;;;;;;;;5043012;28;20022;-72
2023/05/25 00:39:43;;;;;;;25.13;11.70;;;;;;;;;;5038520;28;20014;-74
2023/05/25 00:42:09;;;;;;;24.93;11.47;;;;;;;;;;5039208;28;20425;-74
2023/05/25 00:44:34;;;;;;;30.37;12.30;;;;;;;;;;5043071;28;20013;-73
2023/05/25 00:47:03;;;;;;;22.47;11.43;;;;;;;;;;5031806;28;20479;-73
2023/05/25 00:49:29;;;;;;;30.67;11.87;;;;;;;;;;5033317;28;20017;-73
2023/05/25 00:51:55;;;;;;;23.67;11.20;;;;;;;;;;5033318;28;20071;-73
2023/05/25 00:54:21;;;;;;;21.87;11.10;;;;;;;;;;5038544;28;20474;-72
2023/05/25 00:56:49;;;;;;;24.37;11.97;;;;;;;;;;5045748;28;20028;-73
2023/05/25 00:59:16;;;;;;;21.67;10.60;;;;;;;;;;5033503;28;20097;-73
2023/05/25 01:04:55;;;;;;;23.87;11.30;;;;;;;;;;5081105;23;20405;-89
2023/05/25 01:07:24;;;;;;;27.97;11.80;;;;;;;;;;5075594;28;20028;-89
2023/05/25 01:09:53;;;;;;;38.23;12.70;;;;;;;;;;5079357;28;20039;-89
2023/05/25 01:12:18;;;;;;;23.90;11.10;;;;;;;;;;5100261;28;20473;-89
2023/05/25 01:14:47;;;;;;;26.50;11.40;;;;;;;;;;5091738;28;20054;-89
2023/05/25 01:17:14;;;;;;;28.37;11.80;;;;;;;;;;5090933;28;20089;-89
2023/05/25 01:19:40;;;;;;;24.93;11.60;;;;;;;;;;5086689;28;20020;-88
2023/05/25 01:22:37;;;;;;;26.60;11.87;;;;;;;;;;5088039;28;20035;-89
2023/05/25 01:25:08;;;;;;;23.77;10.70;;;;;;;;;;5054974;28;20040;-88
2023/05/25 01:27:40;;;;;;;26.77;11.50;;;;;;;;;;5084410;28;20024;-89
2023/05/25 01:30:09;;;;;;;23.33;10.77;;;;;;;;;;5090776;28;20804;-88
2023/05/25 01:32:36;;;;;;;22.47;10.30;;;;;;;;;;5088748;28;20031;-89
2023/05/25 01:35:05;;;;;;;25.37;10.63;;;;;;;;;;5091829;28;20047;-88
2023/05/25 01:37:31;;;;;;;27.37;11.20;;;;;;;;;;5096180;28;20035;-88
2023/05/25 01:39:57;;;;;;;19.83;10.37;;;;;;;;;;5092355;28;20441;-88
2023/05/25 01:42:22;;;;;;;22.13;11.03;;;;;;;;;;5108815;28;20063;-89
2023/05/25 01:44:48;;;;;;;20.60;9.80;;;;;;;;;;5103027;28;20034;-89
2023/05/25 01:47:23;;;;;;;21.13;9.97;;;;;;;;;;5084625;28;20035;-88
2023/05/25 01:50:01;;;;;;;25.87;9.97;;;;;;;;;;5109256;28;20528;-89
2023/05/25 01:52:33;;;;;;;21.30;9.23;;;;;;;;;;5089085;28;20077;-87
2023/05/25 01:55:02;;;;;;;21.80;10.15;;;;;;;;;;5101160;28;20035;-88
2023/05/25 01:57:28;;;;;;;21.53;10.00;;;;;;;;;;5089684;28;20035;-88
2023/05/25 01:59:56;;;;;;;27.77;9.80;;;;;;;;;;5090932;28;20232;-88
2023/05/25 02:02:22;;;;;;;24.43;10.83;;;;;;;;;;5088901;28;20027;-88
2023/05/25 02:04:47;;;;;;;25.50;10.23;;;;;;;;;;5085483;28;20153;-88
2023/05/25 02:07:13;;;;;;;25.70;10.47;;;;;;;;;;5073545;28;20035;-88
2023/05/25 02:09:38;;;;;;;23.77;10.80;;;;;;;;;;5072347;28;20035;-88
2023/05/25 02:12:05;;;;;;;23.93;10.37;;;;;;;;;;5070623;28;20048;-88
2023/05/25 02:14:30;;;;;;;23.30;10.27;;;;;;;;;;5071036;28;20520;-88
2023/05/25 02:16:56;;;;;;;22.80;10.40;;;;;;;;;;5070147;28;20036;-88
2023/05/25 02:19:21;;;;;;;29.27;10.83;;;;;;;;;;5069917;28;20025;-88
2023/05/25 02:21:47;;;;;;;26.30;10.00;;;;;;;;;;5070755;28;20520;-88
2023/05/25 02:24:12;;;;;;;29.13;10.77;;;;;;;;;;5072155;28;20025;-88
2023/05/25 02:26:38;;;;;;;29.30;11.27;;;;;;;;;;5073009;28;21438;-88
2023/05/25 02:29:04;;;;;;;26.27;10.70;;;;;;;;;;5073142;28;20017;-88
2023/05/25 02:31:29;;;;;;;21.73;10.33;;;;;;;;;;5073030;28;20016;-88
2023/05/25 02:33:55;;;;;;;26.77;10.90;;;;;;;;;;5080388;28;20074;-88
2023/05/25 02:36:20;;;;;;;23.80;11.17;;;;;;;;;;5073022;28;20023;-88
2023/05/25 02:38:48;;;;;;;23.93;10.77;;;;;;;;;;5073496;28;20049;-87
2023/05/25 02:41:14;;;;;;;29.53;10.03;;;;;;;;;;5080468;28;20027;-88
2023/05/25 02:43:39;;;;;;;24.53;10.50;;;;;;;;;;5074109;28;20474;-87
2023/05/25 02:46:05;;;;;;;23.67;10.20;;;;;;;;;;5074386;28;20028;-88
2023/05/25 02:48:30;;;;;;;24.87;11.23;;;;;;;;;;5074272;28;20416;-88
2023/05/25 02:50:55;;;;;;;25.43;11.77;;;;;;;;;;5074221;28;20024;-88
2023/05/25 02:53:20;;;;;;;21.80;10.60;;;;;;;;;;5074975;28;20024;-88
2023/05/25 02:55:46;;;;;;;20.43;9.63;;;;;;;;;;5072361;28;20485;-88
2023/05/25 02:58:11;;;;;;;27.40;10.43;;;;;;;;;;5081976;28;20438;-87
2023/05/25 03:00:36;;;;;;;25.07;10.57;;;;;;;;;;5072792;28;20012;-87
2023/05/25 03:03:02;;;;;;;23.93;10.17;;;;;;;;;;5079096;28;20411;-87
2023/05/25 03:05:27;;;;;;;22.17;9.97;;;;;;;;;;5072075;28;20063;-87
2023/05/25 03:07:53;;;;;;;25.43;10.30;;;;;;;;;;5081388;28;20024;-87
2023/05/25 03:10:18;;;;;;;25.23;10.90;;;;;;;;;;5081070;28;20074;-88
2023/05/25 03:12:43;;;;;;;27.70;11.37;;;;;;;;;;5073662;28;20525;-87
2023/05/25 03:15:11;;;;;;;25.67;10.97;;;;;;;;;;5074871;28;20028;-87
2023/05/25 03:17:37;;;;;;;29.27;11.03;;;;;;;;;;5074896;28;20050;-87
2023/05/25 03:20:03;;;;;;;28.33;11.40;;;;;;;;;;5073931;28;20107;-87
2023/05/25 03:22:28;;;;;;;30.07;11.43;;;;;;;;;;5071746;28;20021;-88
2023/05/25 03:24:55;;;;;;;29.20;11.87;;;;;;;;;;5093543;28;20036;-88
2023/05/25 03:27:20;;;;;;;30.60;11.00;;;;;;;;;;5090395;28;20054;-90
2023/05/25 03:29:47;;;;;;;30.70;11.40;;;;;;;;;;5082211;28;20020;-90
2023/05/25 03:32:12;;;;;;;29.63;11.03;;;;;;;;;;5085375;28;20051;-89
2023/05/25 03:34:39;;;;;;;31.60;11.40;;;;;;;;;;5083121;28;20020;-90
2023/05/25 03:37:04;;;;;;;30.30;11.17;;;;;;;;;;5085006;28;20442;-90
2023/05/25 03:39:30;;;;;;;27.93;10.87;;;;;;;;;;5081474;28;20024;-90
2023/05/25 03:41:56;;;;;;;27.27;11.60;;;;;;;;;;5087316;28;20039;-89
2023/05/25 03:44:22;;;;;;;33.03;13.47;;;;;;;;;;5090046;28;20374;-90
2023/05/25 03:46:47;;;;;;;25.53;11.77;;;;;;;;;;5081192;28;20024;-90
2023/05/25 03:49:12;;;;;;;32.10;11.80;;;;;;;;;;5091185;28;20044;-90
2023/05/25 03:51:38;;;;;;;32.00;11.87;;;;;;;;;;5095592;28;20067;-90
2023/05/25 03:54:03;;;;;;;33.13;11.83;;;;;;;;;;5093429;28;20048;-89
2023/05/25 03:56:28;;;;;;;36.93;12.10;;;;;;;;;;5089586;28;20547;-89
2023/05/25 03:58:54;;;;;;;30.43;12.83;;;;;;;;;;5089705;28;20024;-90
2023/05/25 04:01:19;;;;;;;29.63;12.23;;;;;;;;;;5098381;28;20004;-91
2023/05/25 04:03:45;;;;;;;31.37;12.43;;;;;;;;;;5089681;28;20097;-91
2023/05/25 04:06:11;;;;;;;39.90;12.07;;;;;;;;;;5089135;28;20039;-90
2023/05/25 04:08:36;;;;;;;31.30;12.33;;;;;;;;;;5091574;28;20008;-90
2023/05/25 04:11:01;;;;;;;29.57;11.90;;;;;;;;;;5085313;28;20024;-89
2023/05/25 04:13:27;;;;;;;32.23;11.80;;;;;;;;;;5088008;28;20032;-89
2023/05/25 04:15:52;;;;;;;29.50;12.00;;;;;;;;;;5080012;28;20075;-90
2023/05/25 04:18:18;;;;;;;30.23;12.47;;;;;;;;;;5081039;28;20039;-89
2023/05/25 04:20:44;;;;;;;31.03;12.20;;;;;;;;;;5089130;28;20095;-90
2023/05/25 04:23:10;;;;;;;27.77;12.23;;;;;;;;;;5087731;28;20024;-88
2023/05/25 04:25:36;;;;;;;27.00;10.60;;;;;;;;;;5084314;28;20049;-90
2023/05/25 04:28:01;;;;;;;30.30;10.20;;;;;;;;;;5089915;28;20020;-90
2023/05/25 04:30:27;;;;;;;24.43;11.30;;;;;;;;;;5083320;28;20031;-89
2023/05/25 04:32:53;;;;;;;29.80;10.50;;;;;;;;;;5090246;28;20046;-90
2023/05/25 04:35:21;;;;;;;24.60;10.20;;;;;;;;;;5097709;28;20076;-90
2023/05/25 04:37:47;;;;;;;25.57;9.97;;;;;;;;;;5085251;28;20031;-90
2023/05/25 04:40:13;;;;;;;29.77;10.77;;;;;;;;;;5082428;28;20017;-89
2023/05/25 04:42:38;;;;;;;27.37;10.67;;;;;;;;;;5081587;28;20088;-90
2023/05/25 04:45:04;;;;;;;25.77;10.43;;;;;;;;;;5084494;28;20351;-89
2023/05/25 04:47:31;;;;;;;26.23;10.17;;;;;;;;;;5077107;28;20142;-90
2023/05/25 04:49:56;;;;;;;28.30;10.97;;;;;;;;;;5093121;28;20473;-90
2023/05/25 04:52:21;;;;;;;25.73;10.67;;;;;;;;;;5082721;28;20107;-90
2023/05/25 04:54:47;;;;;;;21.43;10.50;;;;;;;;;;5091386;28;20377;-91
2023/05/25 04:57:12;;;;;;;26.07;11.10;;;;;;;;;;5084180;28;20037;-90
2023/05/25 04:59:37;;;;;;;34.63;12.83;;;;;;;;;;5088643;28;20020;-91
2023/05/25 05:02:03;;;;;;;25.50;11.23;;;;;;;;;;5080285;28;20039;-89
2023/05/25 05:04:29;;;;;;;28.20;10.97;;;;;;;;;;5081718;28;20127;-91
2023/05/25 05:06:54;;;;;;;29.40;12.10;;;;;;;;;;5076085;28;20028;-91
2023/05/25 05:09:19;;;;;;;23.33;11.17;;;;;;;;;;5079540;28;20020;-90
2023/05/25 05:11:45;;;;;;;24.93;11.47;;;;;;;;;;5073709;28;20125;-90
2023/05/25 05:14:10;;;;;;;28.17;11.43;;;;;;;;;;5078903;28;20021;-90
2023/05/25 05:16:36;;;;;;;27.57;11.30;;;;;;;;;;5076715;28;20028;-90
2023/05/25 05:19:01;;;;;;;22.93;10.60;;;;;;;;;;5071953;28;20024;-89
2023/05/25 05:21:31;;;;;;;23.80;11.53;;;;;;;;;;5074086;28;20044;-89
2023/05/25 05:23:56;;;;;;;24.13;11.23;;;;;;;;;;5072657;28;20039;-90
2023/05/25 05:26:22;;;;;;;25.03;10.47;;;;;;;;;;5077294;28;20474;-89
2023/05/25 05:28:47;;;;;;;23.93;10.80;;;;;;;;;;5075345;28;20055;-90
2023/05/25 05:31:13;;;;;;;24.63;11.13;;;;;;;;;;5074403;28;20023;-90
2023/05/25 05:33:38;;;;;;;26.43;9.53;;;;;;;;;;5074673;28;20083;-89
2023/05/25 05:36:04;;;;;;;19.90;9.55;;;;;;;;;;5075099;28;20386;-90
2023/05/25 05:38:29;;;;;;;20.30;9.67;;;;;;;;;;5075471;28;20029;-89
2023/05/25 05:40:55;;;;;;;21.90;9.50;;;;;;;;;;5074827;28;20017;-89
2023/05/25 05:43:20;;;;;;;19.15;9.60;;;;;;;;;;5074955;28;20100;-89
2023/05/25 05:45:45;;;;;;;16.02;8.70;;;;;;;;;;5073418;28;20016;-89
2023/05/25 05:48:11;;;;;;;23.00;10.07;;;;;;;;;;5073919;28;20537;-89
2023/05/25 05:50:37;;;;;;;19.58;9.18;;;;;;;;;;5071640;28;20036;-90
2023/05/25 05:53:02;;;;;;;22.65;9.75;;;;;;;;;;5075048;28;20016;-89
2023/05/25 05:55:27;;;;;;;18.10;9.07;;;;;;;;;;5074862;28;20428;-89
2023/05/25 05:57:53;;;;;;;25.77;9.40;;;;;;;;;;5074794;28;20021;-89
2023/05/25 06:00:18;;;;;;;26.20;9.70;;;;;;;;;;5075971;28;20374;-90
2023/05/25 06:02:43;;;;;;;19.83;9.50;;;;;;;;;;5080539;28;20017;-90
2023/05/25 06:05:09;;;;;;;22.75;9.32;;;;;;;;;;5078222;28;20044;-90
2023/05/25 06:07:34;;;;;;;19.45;9.45;;;;;;;;;;5077888;28;20039;-89
2023/05/25 06:10:00;;;;;;;21.15;9.68;;;;;;;;;;5079637;28;20522;-90
2023/05/25 06:12:25;;;;;;;20.02;9.43;;;;;;;;;;5079177;28;20035;-91
2023/05/25 06:14:50;;;;;;;20.52;8.25;;;;;;;;;;5078109;28;20028;-90
2023/05/25 06:17:16;;;;;;;21.98;8.57;;;;;;;;;;5065379;28;20037;-90
2023/05/25 06:19:41;;;;;;;20.08;7.72;;;;;;;;;;5070741;28;20378;-90
2023/05/25 06:22:06;;;;;;;21.67;8.00;;;;;;;;;;5075320;28;20025;-89
2023/05/25 06:24:32;;;;;;;16.35;7.47;;;;;;;;;;5077401;28;20025;-90
2023/05/25 06:26:57;;;;;;;19.88;8.50;;;;;;;;;;5078566;28;20044;-90
2023/05/25 06:29:22;;;;;;;21.27;7.70;;;;;;;;;;5079023;28;20370;-91
2023/05/25 06:31:47;;;;;;;21.25;7.55;;;;;;;;;;5075416;28;20084;-89
2023/05/25 06:34:13;;;;;;;17.15;6.88;;;;;;;;;;5077942;28;20104;-90
2023/05/25 06:36:38;;;;;;;15.80;7.18;;;;;;;;;;5076441;28;20046;-90
2023/05/25 06:39:03;;;;;;;19.08;8.00;;;;;;;;;;5077556;28;20461;-90
2023/05/25 06:41:29;;;;;;;20.75;7.65;;;;;;;;;;5078768;28;20048;-90
2023/05/25 06:43:54;;;;;;;22.73;7.38;;;;;;;;;;5078591;28;20153;-90
2023/05/25 06:46:20;;;;;;;14.98;6.60;;;;;;;;;;5076981;28;20338;-89
2023/05/25 06:48:46;;;;;;;13.38;6.70;;;;;;;;;;5077477;28;20021;-89
2023/05/25 06:51:11;;;;;;;18.63;6.72;;;;;;;;;;5073485;28;20028;-90
2023/05/25 06:53:38;;;;;;;14.73;6.88;;;;;;;;;;5076504;28;20103;-90
2023/05/25 06:56:03;;;;;;;13.27;5.60;;;;;;;;;;5078440;28;20488;-91
2023/05/25 06:58:29;;;;;;;12.13;5.20;;;;;;;;;;5078191;28;20024;-89
2023/05/25 07:00:54;;;;;;;14.68;5.20;;;;;;;;;;5078801;28;20425;-90
2023/05/25 07:03:19;;;;;;;11.38;5.07;;;;;;;;;;5075274;28;20055;-90
2023/05/25 07:05:45;;;;;;;11.27;4.80;;;;;;;;;;5068478;28;20040;-89
2023/05/25 07:08:10;;;;;;;12.57;4.82;;;;;;;;;;5076040;28;20024;-90
2023/05/25 07:10:35;;;;;;;17.58;5.82;;;;;;;;;;5078009;28;20482;-90
2023/05/25 07:13:00;;;;;;;14.05;5.93;;;;;;;;;;5078788;28;20474;-90
2023/05/25 07:15:26;;;;;;;15.48;6.38;;;;;;;;;;5078823;28;20017;-89
2023/05/25 07:17:51;;;;;;;12.88;5.53;;;;;;;;;;5078002;28;20029;-90
2023/05/25 07:20:16;;;;;;;11.77;5.63;;;;;;;;;;5078259;28;20020;-89
2023/05/25 07:22:42;;;;;;;16.65;6.43;;;;;;;;;;5077363;28;20027;-90
2023/05/25 07:25:08;;;;;;;15.95;5.07;;;;;;;;;;5075950;28;20462;-90
2023/05/25 07:27:34;;;;;;;15.88;5.38;;;;;;;;;;5077370;28;20560;-90
2023/05/25 07:30:00;;;;;;;10.90;4.13;;;;;;;;;;5077272;28;20481;-89
2023/05/25 07:32:25;;;;;;;11.15;3.83;;;;;;;;;;5077700;28;20082;-91
2023/05/25 07:34:50;;;;;;;11.80;4.45;;;;;;;;;;5077090;28;20025;-89
2023/05/25 07:37:15;;;;;;;11.35;3.58;;;;;;;;;;5076530;28;20029;-89
2023/05/25 07:39:41;;;;;;;12.75;3.55;;;;;;;;;;5077337;28;20020;-89
2023/05/25 07:42:07;;;;;;;10.68;3.00;;;;;;;;;;5075807;28;20531;-89
2023/05/25 07:44:33;;;;;;;12.10;3.80;;;;;;;;;;5077719;28;20027;-90
2023/05/25 07:46:58;;;;;;;10.45;3.35;;;;;;;;;;5077870;28;20471;-91
2023/05/25 07:49:24;;;;;;;9.95;3.88;;;;;;;;;;5073347;28;20494;-91
2023/05/25 07:51:49;;;;;;;10.90;2.90;;;;;;;;;;5075797;28;20107;-91
2023/05/25 07:54:15;;;;;;;15.40;4.35;;;;;;;;;;5075375;28;20020;-90
2023/05/25 07:56:40;;;;;;;10.93;3.58;;;;;;;;;;5075782;28;20508;-89
2023/05/25 07:59:05;;;;;;;11.55;3.25;;;;;;;;;;5083037;28;20375;-91
2023/05/25 08:01:31;;;;;;;9.57;3.00;;;;;;;;;;5073956;28;20386;-91
2023/05/25 08:03:56;;;;;;;12.00;2.95;;;;;;;;;;5075322;28;20039;-91
2023/05/25 08:06:22;;;;;;;12.75;3.03;;;;;;;;;;5074447;28;20016;-91
2023/05/25 08:08:48;;;;;;;9.20;2.75;;;;;;;;;;5071734;28;20048;-92
2023/05/25 08:11:14;;;;;;;13.55;3.05;;;;;;;;;;5073660;28;20040;-92
2023/05/25 08:13:39;;;;;;;12.82;2.97;;;;;;;;;;5077123;28;20047;-92
2023/05/25 08:16:04;;;;;;;14.57;3.08;;;;;;;;;;5075240;28;20099;-90
2023/05/25 08:18:30;;;;;;;14.20;3.30;;;;;;;;;;5073606;28;20387;-91
2023/05/25 08:20:56;;;;;;;10.98;3.53;;;;;;;;;;5074986;28;20422;-91
2023/05/25 08:23:21;;;;;;;10.68;3.45;;;;;;;;;;5072810;28;20351;-91
2023/05/25 08:25:46;;;;;;;10.35;2.80;;;;;;;;;;5075077;28;20020;-91
2023/05/25 08:28:11;;;;;;;13.70;3.50;;;;;;;;;;5080883;28;20500;-90
2023/05/25 08:30:37;;;;;;;9.30;3.33;;;;;;;;;;5079606;28;20508;-90
2023/05/25 08:33:02;;;;;;;13.90;3.42;;;;;;;;;;5077075;28;20086;-90
2023/05/25 08:35:28;;;;;;;12.05;3.28;;;;;;;;;;5076333;28;20020;-91
2023/05/25 08:37:53;;;;;;;10.50;3.78;;;;;;;;;;5076247;28;20031;-91
2023/05/25 08:40:21;;;;;;;11.10;4.07;;;;;;;;;;5055334;28;20025;-91
2023/05/25 08:42:46;;;;;;;13.55;3.45;;;;;;;;;;5073039;28;20027;-91
2023/05/25 08:45:11;;;;;;;12.63;3.30;;;;;;;;;;5076126;28;20020;-92
2023/05/25 08:47:41;;;;;;;12.52;3.70;;;;;;;;;;5075357;28;20024;-91
2023/05/25 08:50:11;;;;;;;12.82;3.78;;;;;;;;;;5072716;28;20478;-92
2023/05/25 08:52:43;;;;;;;11.82;3.53;;;;;;;;;;5074523;28;20071;-91
2023/05/25 08:55:09;;;;;;;10.50;3.35;;;;;;;;;;5073972;28;20020;-91
2023/05/25 08:57:48;;;;;;;13.70;3.97;;;;;;;;;;5071295;28;20020;-91
2023/05/25 09:00:14;;;;;;;12.63;3.60;;;;;;;;;;5073595;28;20020;-92
2023/05/25 09:02:49;;;;;;;11.18;4.07;;;;;;;;;;5072392;28;20025;-91
2023/05/25 09:05:15;;;;;;;10.98;3.13;;;;;;;;;;5072874;28;20048;-89
2023/05/25 09:07:41;;;;;;;15.68;3.30;;;;;;;;;;5068543;28;20016;-89
2023/05/25 09:10:07;;;;;;;10.93;2.95;;;;;;;;;;5070331;28;20024;-90
2023/05/25 09:12:34;;;;;;;14.70;3.42;;;;;;;;;;5073680;28;20023;-90
2023/05/25 09:15:00;;;;;;;15.32;4.20;;;;;;;;;;5073970;28;20028;-89
2023/05/25 09:17:25;;;;;;;15.40;3.75;;;;;;;;;;5073198;28;20035;-90
2023/05/25 09:19:51;;;;;;;12.55;3.72;;;;;;;;;;5072977;28;20082;-91
2023/05/25 09:22:16;;;;;;;14.70;3.90;;;;;;;;;;5073816;28;20020;-90
2023/05/25 09:24:43;;;;;;;14.70;3.33;;;;;;;;;;5073679;28;20497;-91
2023/05/25 09:27:11;;;;;;;16.98;3.80;;;;;;;;;;5074373;28;20020;-90
2023/05/25 09:29:37;;;;;;;18.85;3.63;;;;;;;;;;5073053;28;20470;-90
2023/05/25 09:32:05;;;;;;;14.95;3.00;;;;;;;;;;5074092;28;20024;-90
2023/05/25 09:34:34;;;;;;;13.40;3.70;;;;;;;;;;5072361;28;20462;-90
2023/05/25 09:37:02;;;;;;;14.82;3.78;;;;;;;;;;5073838;28;20060;-91
2023/05/25 09:39:28;;;;;;;14.15;3.95;;;;;;;;;;5077835;28;20382;-90
2023/05/25 09:41:53;;;;;;;20.27;4.13;;;;;;;;;;5077893;28;20021;-91
2023/05/25 09:44:19;;;;;;;18.80;4.30;;;;;;;;;;5077013;28;20042;-91
2023/05/25 09:46:45;;;;;;;14.88;3.72;;;;;;;;;;5077214;28;20409;-91
2023/05/25 09:49:10;;;;;;;14.02;3.60;;;;;;;;;;5079139;28;20028;-91
2023/05/25 09:51:36;;;;;;;21.77;3.40;;;;;;;;;;5077093;28;20029;-90
2023/05/25 09:54:08;;;;;;;14.82;3.13;;;;;;;;;;5076288;28;20028;-90
2023/05/25 09:56:33;;;;;;;;;;;;;;;;;;5078741;28;20470;-90
2023/05/25 09:58:58;;;;;;;17.23;3.42;;;;;;;;;;5078406;28;19909;-90
2023/05/25 10:01:24;;;;;;;15.48;3.88;;;;;;;;;;5078358;28;20246;-89
2023/05/25 10:03:49;;;;;;;18.05;4.20;;;;;;;;;;5078524;28;20098;-91
2023/05/25 10:06:15;;;;;;;16.13;3.78;;;;;;;;;;5077726;28;20355;-90
2023/05/25 10:08:42;;;;;;;18.38;4.40;;;;;;;;;;5075042;28;20462;-90
2023/05/25 10:11:07;;;;;;;20.73;5.07;;;;;;;;;;5061442;28;20047;-89
2023/05/25 10:13:33;;;;;;;22.92;4.63;;;;;;;;;;5078351;28;20028;-90
2023/05/25 10:15:58;;;;;;;20.73;4.40;;;;;;;;;;5078300;28;20024;-89
2023/05/25 10:18:26;;;;;;;15.07;3.80;;;;;;;;;;5077000;28;20078;-88
2023/05/25 10:20:54;;;;;;;20.98;4.40;;;;;;;;;;5074046;28;20017;-89
2023/05/25 10:23:21;;;;;;;12.63;3.60;;;;;;;;;;5063357;28;20067;-89
2023/05/25 10:25:47;;;;;;;22.70;4.32;;;;;;;;;;5074579;28;20021;-90
2023/05/25 10:28:19;;;;;;;18.58;4.13;;;;;;;;;;5074978;28;20058;-89
2023/05/25 10:30:45;;;;;;;19.17;5.10;;;;;;;;;;5076983;28;20469;-90
2023/05/25 10:33:11;;;;;;;18.95;4.70;;;;;;;;;;5079106;28;20024;-90
2023/05/25 10:35:38;;;;;;;20.65;4.53;;;;;;;;;;5082295;28;20470;-91
2023/05/25 10:38:04;;;;;;;17.23;4.85;;;;;;;;;;5082600;28;20025;-91
2023/05/25 10:40:31;;;;;;;18.80;4.03;;;;;;;;;;5079730;28;20025;-91
2023/05/25 10:42:57;;;;;;;18.23;4.03;;;;;;;;;;5080266;28;20024;-92
2023/05/25 10:45:23;;;;;;;19.60;4.78;;;;;;;;;;5082030;28;20063;-91
2023/05/25 10:47:49;;;;;;;16.10;4.25;;;;;;;;;;5084180;28;20404;-91
2023/05/25 10:50:27;;;;;;;16.30;3.78;;;;;;;;;;5084330;28;20028;-92
2023/05/25 10:53:02;;;;;;;13.48;3.55;;;;;;;;;;5085151;28;20477;-92
2023/05/25 10:55:31;;;;;;;14.35;3.63;;;;;;;;;;5113167;28;20032;-92
2023/05/25 10:58:09;;;;;;;13.85;4.03;;;;;;;;;;5085180;28;20017;-91
2023/05/25 11:00:35;;;;;;;20.63;4.35;;;;;;;;;;5083846;28;20024;-90
2023/05/25 11:03:00;;;;;;;18.05;4.10;;;;;;;;;;5080976;28;20024;-91
2023/05/25 11:05:26;;;;;;;15.75;3.65;;;;;;;;;;5078910;28;20494;-91
2023/05/25 11:07:55;;;;;;;17.77;3.58;;;;;;;;;;5077938;28;20024;-90
2023/05/25 11:10:39;;;;;;;17.17;3.63;;;;;;;;;;5077854;28;20012;-91
2023/05/25 11:13:23;;;;;;;13.38;3.38;;;;;;;;;;5077622;28;20017;-91
2023/05/25 11:16:06;;;;;;;15.18;3.58;;;;;;;;;;5078198;28;20017;-92
2023/05/25 11:18:39;;;;;;;17.42;4.25;;;;;;;;;;5075853;28;20025;-92
2023/05/25 11:21:15;;;;;;;15.65;4.45;;;;;;;;;;5079037;28;20100;-91
2023/05/25 11:24:01;;;;;;;13.10;3.97;;;;;;;;;;5079538;28;20355;-92
2023/05/25 11:26:31;;;;;;;15.70;3.78;;;;;;;;;;5082459;28;20020;-91
2023/05/25 11:29:00;;;;;;;16.35;3.97;;;;;;;;;;5078614;28;20040;-91
2023/05/25 11:31:31;;;;;;;14.85;3.92;;;;;;;;;;5077864;28;20013;-92
2023/05/25 11:33:57;;;;;;;15.60;4.07;;;;;;;;;;5076919;28;20017;-93
2023/05/25 11:36:23;;;;;;;20.77;3.88;;;;;;;;;;5073708;28;20533;-91
2023/05/25 11:38:50;;;;;;;19.13;4.28;;;;;;;;;;5076709;28;20105;-92
2023/05/25 11:41:20;;;;;;;20.23;4.07;;;;;;;;;;5082535;28;20035;-90
2023/05/25 11:43:46;;;;;;;20.02;4.43;;;;;;;;;;5082188;28;20035;-90
2023/05/25 11:46:12;;;;;;;17.52;3.88;;;;;;;;;;5077315;28;20031;-89
2023/05/25 11:48:53;;;;;;;19.13;4.25;;;;;;;;;;5081195;28;20024;-90
2023/05/25 11:51:23;;;;;;;22.30;4.55;;;;;;;;;;5080379;28;20016;-92
2023/05/25 11:53:48;;;;;;;16.20;4.30;;;;;;;;;;5081749;28;20017;-90
2023/05/25 11:56:15;;;;;;;20.23;4.30;;;;;;;;;;5079217;28;20024;-90
2023/05/25 11:58:43;;;;;;;16.70;4.13;;;;;;;;;;5079413;28;20025;-90
2023/05/25 12:01:15;;;;;;;16.63;4.18;;;;;;;;;;5082586;28;20443;-92
2023/05/25 12:03:40;;;;;;;20.35;4.45;;;;;;;;;;5082221;28;20048;-92
2023/05/25 12:06:06;;;;;;;15.65;4.05;;;;;;;;;;5083205;28;20020;-92
2023/05/25 12:08:35;;;;;;;14.18;3.80;;;;;;;;;;5083820;28;20013;-92
2023/05/25 12:11:00;;;;;;;17.30;3.80;;;;;;;;;;5082249;28;20028;-91
2023/05/25 12:13:26;;;;;;;17.17;4.65;;;;;;;;;;5082728;28;20020;-93
2023/05/25 12:15:56;;;;;;;14.95;4.03;;;;;;;;;;5080392;28;20021;-90
2023/05/25 12:18:22;;;;;;;17.30;4.18;;;;;;;;;;5082103;28;20067;-91
2023/05/25 12:20:47;;;;;;;20.65;4.88;;;;;;;;;;5082129;28;20054;-92
2023/05/25 12:23:12;;;;;;;18.23;4.40;;;;;;;;;;5083353;28;20095;-91
2023/05/25 12:25:38;;;;;;;23.27;4.15;;;;;;;;;;5066522;28;20031;-91
2023/05/25 12:28:13;;;;;;;14.65;3.70;;;;;;;;;;5076445;28;20050;-93
2023/05/25 12:30:39;;;;;;;15.05;3.97;;;;;;;;;;5084544;28;20037;-91
2023/05/25 12:33:04;;;;;;;21.60;4.63;;;;;;;;;;5083007;28;20024;-92
2023/05/25 12:35:42;;;;;;;21.27;5.20;;;;;;;;;;5083199;28;20026;-92
2023/05/25 12:38:10;;;;;;;15.65;3.83;;;;;;;;;;5063309;28;20036;-92
2023/05/25 12:40:36;;;;;;;21.67;4.72;;;;;;;;;;5064759;28;20028;-93
2023/05/25 12:43:01;;;;;;;16.95;4.60;;;;;;;;;;5080293;28;20020;-91
2023/05/25 12:45:26;;;;;;;15.20;4.10;;;;;;;;;;5070686;28;20111;-92
2023/05/25 12:47:52;;;;;;;19.27;4.03;;;;;;;;;;5070369;28;20028;-93
2023/05/25 12:50:18;;;;;;;16.63;4.32;;;;;;;;;;5073718;28;20078;-91
2023/05/25 12:52:44;;;;;;;16.48;4.00;;;;;;;;;;5071916;28;20027;-90
2023/05/25 12:55:25;;;;;;;18.92;4.40;;;;;;;;;;5076153;28;20460;-91
2023/05/25 12:57:51;;;;;;;18.33;4.57;;;;;;;;;;5075547;28;20028;-92
2023/05/25 13:00:24;;;;;;;18.27;4.10;;;;;;;;;;5075283;28;20515;-91
2023/05/25 13:02:50;;;;;;;17.98;4.22;;;;;;;;;;5072297;28;20039;-92
2023/05/25 13:05:18;;;;;;;19.58;4.25;;;;;;;;;;5078148;28;20510;-91
2023/05/25 13:07:43;;;;;;;18.42;3.92;;;;;;;;;;5078767;28;20051;-91
2023/05/25 13:10:09;;;;;;;16.38;3.97;;;;;;;;;;5079764;28;20029;-91
2023/05/25 13:12:34;;;;;;;17.63;3.80;;;;;;;;;;5078326;28;20153;-92
2023/05/25 13:14:59;;;;;;;18.83;4.60;;;;;;;;;;5077621;28;19992;-93
2023/05/25 13:17:25;;;;;;;20.77;4.78;;;;;;;;;;5073425;28;20028;-92
2023/05/25 13:19:50;;;;;;;16.42;4.45;;;;;;;;;;5078156;28;20463;-91
2023/05/25 13:22:15;;;;;;;17.33;3.95;;;;;;;;;;5079316;28;20103;-93
2023/05/25 13:24:41;;;;;;;18.00;4.22;;;;;;;;;;5078633;28;20024;-92
2023/05/25 13:27:06;;;;;;;16.42;4.43;;;;;;;;;;5077903;28;20028;-92
2023/05/25 13:29:32;;;;;;;17.45;4.05;;;;;;;;;;5078466;28;20053;-93
2023/05/25 13:31:58;;;;;;;18.60;4.10;;;;;;;;;;5078312;28;20039;-93
2023/05/25 13:34:23;;;;;;;17.27;3.92;;;;;;;;;;5072879;28;20021;-92
2023/05/25 13:36:49;;;;;;;17.25;4.30;;;;;;;;;;5079827;28;20048;-93
2023/05/25 13:39:14;;;;;;;20.52;4.85;;;;;;;;;;5079583;28;20048;-92
2023/05/25 13:41:40;;;;;;;18.38;4.10;;;;;;;;;;5077931;28;20031;-92
2023/05/25 13:44:06;;;;;;;19.27;4.72;;;;;;;;;;5077949;28;20029;-92
2023/05/25 13:46:32;;;;;;;15.95;3.75;;;;;;;;;;5080764;28;20455;-93
2023/05/25 13:48:57;;;;;;;15.65;4.20;;;;;;;;;;5078951;28;20044;-93
2023/05/25 13:51:22;;;;;;;18.83;4.18;;;;;;;;;;5078538;28;20025;-92
2023/05/25 13:53:48;;;;;;;17.63;3.85;;;;;;;;;;5075826;28;20024;-92
2023/05/25 13:56:13;;;;;;;16.50;4.10;;;;;;;;;;5077787;28;20013;-92
2023/05/25 13:58:39;;;;;;;14.40;3.95;;;;;;;;;;5076462;28;20462;-92
2023/05/25 14:01:04;;;;;;;18.02;4.35;;;;;;;;;;5080499;28;20020;-89
2023/05/25 14:03:29;;;;;;;16.25;4.40;;;;;;;;;;5073865;28;20509;-90
2023/05/25 14:05:55;;;;;;;15.85;4.03;;;;;;;;;;5073391;28;20078;-89
2023/05/25 14:08:20;;;;;;;16.40;4.03;;;;;;;;;;5077640;28;20025;-90
2023/05/25 14:10:46;;;;;;;20.10;4.47;;;;;;;;;;5072812;28;20017;-90
2023/05/25 14:13:11;;;;;;;16.80;4.47;;;;;;;;;;5076703;28;20070;-90
2023/05/25 14:15:36;;;;;;;17.27;4.05;;;;;;;;;;5074202;28;20474;-90
2023/05/25 14:18:02;;;;;;;15.52;3.92;;;;;;;;;;5074264;28;20082;-91
2023/05/25 14:20:27;;;;;;;17.08;4.70;;;;;;;;;;5073150;28;20077;-90
2023/05/25 14:22:53;;;;;;;19.10;4.22;;;;;;;;;;5077555;28;20017;-90
2023/05/25 14:25:18;;;;;;;15.05;4.25;;;;;;;;;;5075681;28;20039;-90